createdAt,value
2022-10-11T00:00:01.626Z,14.05
2022-10-11T00:05:24.479Z,12.98
2022-10-11T00:10:26.891Z,12.34
2022-10-11T00:15:29.337Z,12.38
2022-10-11T00:20:31.876Z,13.49
2022-10-11T00:25:34.264Z,14.21
2022-10-11T00:30:36.740Z,14.70
2022-10-11T00:35:41.589Z,14.45
2022-10-11T00:40:45.407Z,13.20
2022-10-11T00:46:24.854Z,12.40
2022-10-11T00:51:43.160Z,12.81
2022-10-11T00:56:50.846Z,14.70
2022-10-11T01:01:53.512Z,14.26
2022-10-11T01:06:57.835Z,12.90
2022-10-11T01:12:03.377Z,12.17
2022-10-11T01:17:24.659Z,12.29
2022-10-11T01:22:38.141Z,13.95
2022-10-11T01:27:46.850Z,14.91
2022-10-11T01:33:16.246Z,15.36
2022-10-11T01:38:40.454Z,14.23
2022-10-11T01:43:44.733Z,12.93
2022-10-11T01:48:53.158Z,12.20
2022-10-11T01:54:56.622Z,12.98
2022-10-11T02:00:18.067Z,14.43
2022-10-11T02:05:58.473Z,13.98
2022-10-11T02:11:20.175Z,12.52
2022-10-11T02:16:28.409Z,12.31
2022-10-11T02:21:34.531Z,13.10
2022-10-11T02:26:43.587Z,13.50
2022-10-11T02:31:47.971Z,14.17
2022-10-11T02:37:07.200Z,14.67
2022-10-11T02:42:17.507Z,15.02
2022-10-11T02:47:20.032Z,14.61
2022-10-11T02:52:22.444Z,12.94
2022-10-11T02:57:24.990Z,11.83
2022-10-11T03:02:27.661Z,11.76
2022-10-11T03:07:30.490Z,12.61
2022-10-11T03:12:33.586Z,12.89
2022-10-11T03:17:37.319Z,13.03
2022-10-11T03:22:40.574Z,13.21
2022-10-11T03:27:43.012Z,13.37
2022-10-11T03:32:45.902Z,13.53
2022-10-11T03:37:48.433Z,13.63
2022-10-11T03:42:50.901Z,13.59
2022-10-11T03:47:53.439Z,13.51
2022-10-11T03:52:55.862Z,13.61
2022-10-11T03:57:58.336Z,13.87
2022-10-11T04:03:03.598Z,14.06
2022-10-11T04:08:11.208Z,14.06
2022-10-11T04:13:15.047Z,14.14
2022-10-11T04:18:17.543Z,14.20
2022-10-11T04:23:20.044Z,14.26
2022-10-11T04:28:22.942Z,14.31
2022-10-11T04:33:25.423Z,14.31
2022-10-11T04:38:27.859Z,14.36
2022-10-11T04:43:30.284Z,14.43
2022-10-11T04:48:33.091Z,14.42
2022-10-11T04:53:35.692Z,14.35
2022-10-11T04:58:42.006Z,14.11
2022-10-11T05:03:44.551Z,14.22
2022-10-11T05:08:47.173Z,14.47
2022-10-11T05:13:50.053Z,14.61
2022-10-11T05:18:52.496Z,14.79
2022-10-11T05:23:56.293Z,14.93
2022-10-11T05:29:01.139Z,15.08
2022-10-11T05:34:03.926Z,15.28
2022-10-11T05:39:06.400Z,15.43
2022-10-11T05:44:08.952Z,15.44
2022-10-11T05:49:11.388Z,15.66
2022-10-11T05:54:15.114Z,15.78
2022-10-11T05:59:17.553Z,15.77
2022-10-11T06:04:20.282Z,15.91
2022-10-11T06:09:23.241Z,16.17
2022-10-11T06:14:26.689Z,16.48
2022-10-11T06:19:29.135Z,16.06
2022-10-11T06:24:31.886Z,14.34
2022-10-11T06:29:35.589Z,13.91
2022-10-11T06:34:38.068Z,15.06
2022-10-11T06:39:40.563Z,15.75
2022-10-11T06:44:43.187Z,16.31
2022-10-11T06:49:45.992Z,16.28
2022-10-11T06:54:48.662Z,16.05
2022-10-11T06:59:51.211Z,16.01
2022-10-11T07:04:54.093Z,16.22
2022-10-11T07:09:57.896Z,16.50
2022-10-11T07:15:00.561Z,16.28
2022-10-11T07:20:03.362Z,15.19
2022-10-11T07:25:06.875Z,15.33
2022-10-11T07:30:09.996Z,16.70
2022-10-11T07:35:12.513Z,17.68
2022-10-11T07:40:14.997Z,16.60
2022-10-11T07:45:17.467Z,15.55
2022-10-11T07:50:19.916Z,15.61
2022-10-11T07:55:22.376Z,16.41
2022-10-11T08:00:24.865Z,17.46
2022-10-11T08:05:27.311Z,17.27
2022-10-11T08:10:29.946Z,16.22
2022-10-11T08:15:32.462Z,15.69
2022-10-11T08:20:35.083Z,16.17
2022-10-11T08:25:45.524Z,17.25
2022-10-11T08:30:53.604Z,16.77
2022-10-11T08:35:57.267Z,16.00
2022-10-11T08:41:01.156Z,15.56
2022-10-11T08:46:05.958Z,15.82
2022-10-11T08:51:18.571Z,16.69
2022-10-11T08:56:23.959Z,16.36
2022-10-11T09:01:28.538Z,17.28
2022-10-11T09:06:47.723Z,16.72
2022-10-11T09:12:16.121Z,16.18
2022-10-11T09:17:56.737Z,16.02
2022-10-11T09:23:18.112Z,16.03
2022-10-11T09:28:48.678Z,16.00
2022-10-11T09:33:52.381Z,16.04
2022-10-11T09:39:07.002Z,16.05
2022-10-11T09:44:19.188Z,16.07
2022-10-11T09:49:25.185Z,16.13
2022-10-11T09:55:00.507Z,16.16
2022-10-11T10:00:24.211Z,16.15
2022-10-11T10:05:29.938Z,16.39
2022-10-11T10:10:38.712Z,16.36
2022-10-11T10:15:46.120Z,15.94
2022-10-11T10:20:53.640Z,15.72
2022-10-11T10:26:19.570Z,15.60
2022-10-11T10:31:25.547Z,15.51
2022-10-11T10:36:35.428Z,15.46
2022-10-11T10:41:37.899Z,15.42
2022-10-11T10:52:47.379Z,15.41
2022-10-11T10:57:59.499Z,15.32
2022-10-11T11:03:05.616Z,15.17
2022-10-11T11:08:46.534Z,15.02
2022-10-11T11:14:07.811Z,15.10
2022-10-11T11:19:47.987Z,15.43
2022-10-11T11:25:19.578Z,15.81
2022-10-11T11:30:57.091Z,16.11
2022-10-11T11:36:05.045Z,16.23
2022-10-11T11:41:28.624Z,16.31
2022-10-11T11:46:40.862Z,16.48
2022-10-11T11:51:46.070Z,16.51
2022-10-11T11:57:33.659Z,16.55
2022-10-11T12:02:57.263Z,16.53
2022-10-11T12:08:02.819Z,16.35
2022-10-11T12:13:32.343Z,16.39
2022-10-11T12:18:46.880Z,16.35
2022-10-11T12:23:52.566Z,15.97
2022-10-11T12:29:17.078Z,15.82
2022-10-11T12:34:36.114Z,15.82
2022-10-11T12:39:49.068Z,15.60
2022-10-11T12:45:13.520Z,15.46
2022-10-11T12:50:22.486Z,15.53
2022-10-11T12:55:37.553Z,15.66
2022-10-11T13:00:39.928Z,15.79
2022-10-11T13:05:50.980Z,15.64
2022-10-11T13:11:03.234Z,15.47
2022-10-11T13:16:14.643Z,15.35
2022-10-11T13:21:36.547Z,15.23
2022-10-11T13:26:39.994Z,15.03
2022-10-11T13:31:46.248Z,14.88
2022-10-11T13:36:54.122Z,14.92
2022-10-11T13:41:58.212Z,15.24
2022-10-11T13:47:00.761Z,15.43
2022-10-11T13:52:24.015Z,15.32
2022-10-11T13:57:41.731Z,15.07
2022-10-11T14:02:59.609Z,15.41
2022-10-11T14:08:26.808Z,15.80
2022-10-11T14:13:53.818Z,15.81
2022-10-11T14:18:59.178Z,15.55
2022-10-11T14:24:05.520Z,15.44
2022-10-11T14:29:21.782Z,15.45
2022-10-11T14:34:26.811Z,15.78
2022-10-11T14:39:31.711Z,15.99
2022-10-11T14:44:34.555Z,15.78
2022-10-11T14:49:37.607Z,15.54
2022-10-11T14:54:40.906Z,15.31
2022-10-11T14:59:43.576Z,15.07
2022-10-11T15:04:46.027Z,14.81
2022-10-11T15:09:48.460Z,14.51
2022-10-11T15:14:50.910Z,14.26
2022-10-11T15:19:53.465Z,14.06
2022-10-11T15:24:56.108Z,13.89
2022-10-11T15:29:58.521Z,13.76
2022-10-11T15:35:00.957Z,13.63
2022-10-11T15:40:14.139Z,13.51
2022-10-11T15:45:18.402Z,13.41
2022-10-11T15:50:33.771Z,13.33
2022-10-11T15:55:40.369Z,13.22
2022-10-11T16:00:45.184Z,13.12
2022-10-11T16:05:48.531Z,13.04
2022-10-11T16:10:52.221Z,12.97
2022-10-11T16:15:55.151Z,12.91
2022-10-11T16:20:58.033Z,12.85
2022-10-11T16:26:04.275Z,12.77
2022-10-11T16:31:09.271Z,12.67
2022-10-11T16:36:32.338Z,12.58
2022-10-11T16:41:34.950Z,12.43
2022-10-11T16:46:37.442Z,12.27
2022-10-11T16:51:43.012Z,12.09
2022-10-11T16:56:45.541Z,11.89
2022-10-11T17:01:48.328Z,11.70
2022-10-11T17:06:52.664Z,11.52
2022-10-11T17:11:55.376Z,11.31
2022-10-11T17:16:57.822Z,11.80
2022-10-11T17:22:00.674Z,13.65
2022-10-11T17:27:04.513Z,14.79
2022-10-11T17:32:07.314Z,14.80
2022-10-11T17:37:10.255Z,13.47
2022-10-11T17:42:12.943Z,12.61
2022-10-11T17:47:15.830Z,11.95
2022-10-11T17:52:18.705Z,11.46
2022-10-11T17:57:21.342Z,11.07
2022-10-11T18:02:24.152Z,11.36
2022-10-11T18:07:28.130Z,13.14
2022-10-11T18:12:33.709Z,14.16
2022-10-11T18:17:39.463Z,14.69
2022-10-11T18:22:42.403Z,14.46
2022-10-11T18:27:46.649Z,12.99
2022-10-11T18:32:50.609Z,12.01
2022-10-11T18:38:00.047Z,11.29
2022-10-11T18:43:05.800Z,11.43
2022-10-11T18:48:10.935Z,12.91
2022-10-11T18:53:14.771Z,13.77
2022-10-11T18:58:18.354Z,14.26
2022-10-11T19:03:23.393Z,14.04
2022-10-11T19:08:27.739Z,12.48
2022-10-11T19:13:30.163Z,11.48
2022-10-11T19:18:33.294Z,10.78
2022-10-11T19:23:39.458Z,11.06
2022-10-11T19:28:43.167Z,12.71
2022-10-11T19:33:48.621Z,13.61
2022-10-11T19:38:52.564Z,14.16
2022-10-11T19:43:57.853Z,13.73
2022-10-11T19:49:02.868Z,12.12
2022-10-11T19:54:12.997Z,11.13
2022-10-11T19:59:15.974Z,10.40
2022-10-11T20:04:47.017Z,10.40
2022-10-11T20:09:42.951Z,11.82
2022-10-11T20:14:46.336Z,12.93
2022-10-11T20:19:49.573Z,13.47
2022-10-11T20:24:52.898Z,13.17
2022-10-11T20:29:55.879Z,11.58
2022-10-11T20:34:58.585Z,10.54
2022-10-11T20:40:01.024Z,9.80
2022-10-11T20:45:04.212Z,9.68
2022-10-11T20:50:07.533Z,10.77
2022-10-11T20:55:10.162Z,11.61
2022-10-11T21:00:14.377Z,12.64
2022-10-11T21:05:16.910Z,13.10
2022-10-11T21:10:19.332Z,13.10
2022-10-11T21:15:21.848Z,12.14
2022-10-11T21:20:25.154Z,10.76
2022-10-11T21:25:27.661Z,9.86
2022-10-11T21:30:30.567Z,10.05
2022-10-11T21:35:33.024Z,11.92
2022-10-11T21:40:39.185Z,13.09
2022-10-11T21:45:41.610Z,13.14
2022-10-11T21:50:44.047Z,11.57
2022-10-11T21:55:47.167Z,10.57
2022-10-11T22:00:49.701Z,10.58
2022-10-11T22:05:52.102Z,11.72
2022-10-11T22:10:57.388Z,12.36
2022-10-11T22:16:04.999Z,13.11
2022-10-11T22:21:14.713Z,13.30
2022-10-11T22:26:20.451Z,13.41
2022-10-11T22:31:23.535Z,11.88
2022-10-11T22:36:27.325Z,10.78
2022-10-11T22:41:29.788Z,10.60
2022-10-11T22:46:32.770Z,11.82
2022-10-11T22:51:35.455Z,12.58
2022-10-11T22:56:37.878Z,12.99
2022-10-11T23:01:40.702Z,13.30
2022-10-11T23:06:44.065Z,13.03
2022-10-11T23:11:46.585Z,11.66
2022-10-11T23:16:52.587Z,10.78
2022-10-11T23:21:55.041Z,10.86
2022-10-11T23:26:57.532Z,12.16
2022-10-11T23:32:00.020Z,13.10
2022-10-11T23:37:03.339Z,13.17
2022-10-11T23:42:05.863Z,13.14
2022-10-11T23:47:08.615Z,13.21
2022-10-11T23:52:11.206Z,12.77
2022-10-11T23:57:13.817Z,11.35
